X  Fermer Données météorologiques d'aviation de Metar     ENRY Moss Airport, Rygge
Température
16°C Température
10°C Point de rosée
68% Humidité



Vent
6 M/S
13 MPH
21 KM/H
11 KTS



190°
S
Conditions actuelles

Nuages épars Nuages épars
Pression 1006.77 (hPa) - 29.73 (inHg)
Visibilité 6 (mile) - 9.7 (km)
Aéroport
Code de l'aéroport ENRY

Emplacement: Moss Airport, Rygge
Distance: 12 (km)

Metar:
ENRY 121750Z 19011KT 9999 SCT021TCU BKN069 16/10 Q1007

Temps: 12-06-2024 19:50 CEST